createdAt,value
2022-11-30T00:01:46.174Z,3.50
2022-11-30T00:04:39.845Z,3.40
2022-11-30T00:07:08.089Z,3.40
2022-11-30T00:09:37.376Z,3.40
2022-11-30T00:12:06.003Z,3.40
2022-11-30T00:14:34.348Z,3.30
2022-11-30T00:17:04.030Z,3.30
2022-11-30T00:19:32.349Z,3.30
2022-11-30T00:22:26.038Z,3.30
2022-11-30T00:24:54.251Z,3.30
2022-11-30T00:27:22.477Z,3.40
2022-11-30T00:29:50.696Z,3.30
2022-11-30T00:32:20.308Z,3.30
2022-11-30T00:34:48.819Z,3.40
2022-11-30T00:37:17.560Z,3.40
2022-11-30T00:39:45.889Z,3.40
2022-11-30T00:42:14.161Z,3.30
2022-11-30T00:44:42.386Z,3.30
2022-11-30T00:47:10.974Z,3.30
2022-11-30T00:49:41.707Z,3.30
2022-11-30T00:52:09.947Z,3.30
2022-11-30T00:54:38.230Z,3.30
2022-11-30T00:57:06.442Z,3.30
2022-11-30T00:59:34.619Z,3.30
2022-11-30T01:02:02.908Z,3.30
2022-11-30T01:04:31.297Z,3.30
2022-11-30T01:07:00.915Z,3.30
2022-11-30T01:09:29.150Z,3.30
2022-11-30T01:12:06.389Z,3.20
2022-11-30T01:14:34.635Z,3.20
2022-11-30T01:17:02.895Z,3.30
2022-11-30T01:19:31.123Z,3.30
2022-11-30T01:22:00.706Z,3.20
2022-11-30T01:24:28.917Z,3.20
2022-11-30T01:26:57.144Z,3.30
2022-11-30T01:29:25.419Z,3.30
2022-11-30T01:31:53.621Z,3.40
2022-11-30T01:34:22.332Z,3.40
2022-11-30T01:36:50.584Z,3.30
2022-11-30T01:39:20.237Z,3.30
2022-11-30T01:41:48.532Z,3.30
2022-11-30T01:44:52.337Z,3.30
2022-11-30T01:47:26.108Z,3.30
2022-11-30T01:50:43.363Z,3.30
2022-11-30T01:53:12.551Z,3.30
2022-11-30T01:55:48.613Z,3.30
2022-11-30T01:58:21.235Z,3.30
2022-11-30T02:00:49.538Z,3.30
2022-11-30T02:03:25.768Z,3.20
2022-11-30T02:06:19.386Z,3.20
2022-11-30T02:08:47.993Z,3.20
2022-11-30T02:11:17.680Z,3.20
2022-11-30T02:14:07.983Z,3.20
2022-11-30T02:16:46.444Z,3.30
2022-11-30T02:19:53.800Z,3.30
2022-11-30T02:22:46.360Z,3.30
2022-11-30T02:25:25.316Z,3.20
2022-11-30T02:28:13.679Z,3.30
2022-11-30T02:30:47.944Z,3.30
2022-11-30T02:33:19.409Z,3.30
2022-11-30T02:35:54.787Z,3.30
2022-11-30T02:38:49.228Z,3.30
2022-11-30T02:41:17.419Z,3.20
2022-11-30T02:43:46.376Z,3.20
2022-11-30T02:46:20.359Z,3.20
2022-11-30T02:48:54.511Z,3.20
2022-11-30T02:51:25.795Z,3.20
2022-11-30T02:53:55.451Z,3.20
2022-11-30T02:56:24.368Z,3.20
2022-11-30T02:58:53.021Z,3.20
2022-11-30T03:01:22.697Z,3.20
2022-11-30T03:03:51.155Z,3.10
2022-11-30T03:06:19.364Z,3.20
2022-11-30T03:08:47.675Z,3.20
2022-11-30T03:11:15.963Z,3.20
2022-11-30T03:13:44.146Z,3.20
2022-11-30T03:16:14.515Z,3.20
2022-11-30T03:18:44.324Z,3.30
2022-11-30T03:21:13.608Z,3.20
2022-11-30T03:23:41.867Z,3.30
2022-11-30T03:26:10.707Z,3.30
2022-11-30T03:28:39.079Z,3.30
2022-11-30T03:31:07.433Z,3.30
2022-11-30T03:33:36.315Z,3.30
2022-11-30T03:36:07.797Z,3.40
2022-11-30T03:38:36.302Z,3.50
2022-11-30T03:41:06.503Z,3.40
2022-11-30T03:43:34.947Z,3.50
2022-11-30T03:46:03.356Z,3.50
2022-11-30T03:48:32.098Z,3.60
2022-11-30T03:51:00.699Z,3.50
2022-11-30T03:53:30.284Z,3.50
2022-11-30T03:56:01.311Z,3.50
2022-11-30T03:58:29.782Z,3.40
2022-11-30T04:01:02.731Z,3.40
2022-11-30T04:03:31.966Z,3.40
2022-11-30T04:06:07.234Z,3.40
2022-11-30T04:08:37.477Z,3.40
2022-11-30T04:11:39.400Z,3.40
2022-11-30T04:14:07.804Z,3.40
2022-11-30T04:16:36.111Z,3.40
2022-11-30T04:19:04.417Z,3.40
2022-11-30T04:21:39.453Z,3.40
2022-11-30T04:24:10.338Z,3.40
2022-11-30T04:26:38.632Z,3.40
2022-11-30T04:29:06.836Z,3.40
2022-11-30T04:31:35.212Z,3.40
2022-11-30T04:34:03.481Z,3.40
2022-11-30T04:36:31.726Z,3.40
2022-11-30T04:39:00.023Z,3.40
2022-11-30T04:41:29.671Z,3.40
2022-11-30T04:43:57.893Z,3.40
2022-11-30T04:46:26.317Z,3.40
2022-11-30T04:48:54.561Z,3.30
2022-11-30T04:51:22.784Z,3.30
2022-11-30T04:53:51.039Z,3.30
2022-11-30T04:56:19.236Z,3.40
2022-11-30T04:58:48.874Z,3.30
2022-11-30T05:01:17.186Z,3.30
2022-11-30T05:03:45.505Z,3.30
2022-11-30T05:06:13.743Z,3.30
2022-11-30T05:08:41.922Z,3.30
2022-11-30T05:11:10.206Z,3.30
2022-11-30T05:13:38.443Z,3.30
2022-11-30T05:16:10.616Z,3.30
2022-11-30T05:18:38.918Z,3.30
2022-11-30T05:21:07.345Z,3.30
2022-11-30T05:23:35.606Z,3.30
2022-11-30T05:26:04.172Z,3.40
2022-11-30T05:28:56.931Z,3.30
2022-11-30T05:31:26.594Z,3.30
2022-11-30T05:33:55.523Z,3.30
2022-11-30T05:36:23.747Z,3.30
2022-11-30T05:38:52.083Z,3.30
2022-11-30T05:41:33.472Z,3.40
2022-11-30T05:44:02.005Z,3.40
2022-11-30T05:46:31.708Z,3.40
2022-11-30T05:48:59.970Z,3.40
2022-11-30T05:51:28.284Z,3.40
2022-11-30T05:53:56.676Z,3.40
2022-11-30T05:56:24.934Z,3.40
2022-11-30T05:58:53.154Z,3.40
2022-11-30T06:01:22.775Z,3.40
2022-11-30T06:03:53.088Z,3.40
2022-11-30T06:06:25.316Z,3.50
2022-11-30T06:08:53.527Z,3.40
2022-11-30T06:11:21.781Z,3.50
2022-11-30T06:13:51.307Z,3.40
2022-11-30T06:16:19.592Z,3.50
2022-11-30T06:18:47.856Z,3.50
2022-11-30T06:21:23.949Z,3.50
2022-11-30T06:23:52.890Z,3.40
2022-11-30T06:26:21.206Z,3.40
2022-11-30T06:28:49.444Z,3.50
2022-11-30T06:31:18.195Z,3.50
2022-11-30T06:33:46.476Z,3.60
2022-11-30T06:36:14.717Z,3.60
2022-11-30T06:38:44.334Z,3.60
2022-11-30T06:41:12.821Z,3.60
2022-11-30T06:43:41.543Z,3.70
2022-11-30T06:46:09.877Z,3.70
2022-11-30T06:48:38.200Z,3.70
2022-11-30T06:51:07.546Z,3.70
2022-11-30T06:53:35.950Z,3.80
2022-11-30T06:56:10.494Z,3.80
2022-11-30T06:59:04.331Z,3.80
2022-11-30T07:01:32.606Z,3.90
2022-11-30T07:04:00.877Z,3.80
2022-11-30T07:06:29.113Z,3.80
2022-11-30T07:08:57.415Z,3.80
2022-11-30T07:11:27.532Z,3.80
2022-11-30T07:13:55.750Z,3.90
2022-11-30T07:16:24.051Z,3.90
2022-11-30T07:18:52.333Z,3.80
2022-11-30T07:21:20.634Z,3.90
2022-11-30T07:24:06.241Z,3.90
2022-11-30T07:26:35.813Z,3.90
2022-11-30T07:29:05.299Z,4.00
2022-11-30T07:31:35.600Z,4.00
2022-11-30T07:34:06.834Z,4.00
2022-11-30T07:36:36.199Z,4.10
2022-11-30T07:39:04.710Z,4.10
2022-11-30T07:41:33.522Z,4.10
2022-11-30T07:44:05.362Z,4.00
2022-11-30T07:46:35.900Z,4.00
2022-11-30T07:49:04.753Z,4.10
2022-11-30T07:51:33.680Z,4.10
2022-11-30T07:54:01.987Z,4.10
2022-11-30T07:56:30.911Z,4.10
2022-11-30T07:59:00.558Z,4.10
2022-11-30T08:01:31.874Z,4.10
2022-11-30T08:04:01.017Z,4.10
2022-11-30T08:06:30.948Z,4.10
2022-11-30T08:09:01.836Z,4.10
2022-11-30T08:11:33.258Z,4.10
2022-11-30T08:14:02.261Z,4.10
2022-11-30T08:16:35.416Z,4.10
2022-11-30T08:19:03.743Z,4.20
2022-11-30T08:21:33.006Z,4.20
2022-11-30T08:24:01.595Z,4.20
2022-11-30T08:26:31.952Z,4.20
2022-11-30T08:29:01.867Z,4.20
2022-11-30T08:31:33.141Z,4.20
2022-11-30T08:34:03.523Z,4.30
2022-11-30T08:36:33.055Z,4.30
2022-11-30T08:39:02.989Z,4.40
2022-11-30T08:41:31.185Z,4.40
2022-11-30T08:43:59.557Z,4.40
2022-11-30T08:46:50.240Z,4.40
2022-11-30T08:49:23.443Z,4.40
2022-11-30T08:54:45.322Z,4.40
2022-11-30T08:57:14.327Z,4.50
2022-11-30T08:59:42.782Z,4.50
2022-11-30T09:02:11.688Z,4.50
2022-11-30T09:04:41.393Z,4.50
2022-11-30T09:07:09.833Z,4.50
2022-11-30T09:09:38.439Z,4.50
2022-11-30T09:12:07.370Z,4.50
2022-11-30T09:14:35.647Z,4.50
2022-11-30T09:17:04.111Z,4.50
2022-11-30T09:19:32.369Z,4.40
2022-11-30T09:22:01.954Z,4.50
2022-11-30T09:24:30.191Z,4.40
2022-11-30T09:26:58.479Z,4.40
2022-11-30T09:29:26.771Z,4.40
2022-11-30T09:31:55.037Z,4.40
2022-11-30T09:34:23.301Z,4.40
2022-11-30T09:36:51.549Z,4.40
2022-11-30T09:39:21.336Z,4.40
2022-11-30T09:42:27.576Z,4.40
2022-11-30T09:45:03.226Z,4.50
2022-11-30T09:47:51.537Z,4.50
2022-11-30T09:50:22.604Z,4.60
2022-11-30T09:52:53.515Z,4.60
2022-11-30T09:55:50.637Z,4.60
2022-11-30T09:58:35.889Z,4.60
2022-11-30T10:01:18.398Z,4.60
2022-11-30T10:03:47.081Z,4.60
2022-11-30T10:06:25.626Z,4.70
2022-11-30T10:09:21.438Z,4.70
2022-11-30T10:12:01.595Z,4.70
2022-11-30T10:14:47.518Z,4.70
2022-11-30T10:17:28.221Z,4.70
2022-11-30T10:20:09.841Z,4.80
2022-11-30T10:22:55.898Z,4.80
2022-11-30T10:25:26.493Z,4.80
2022-11-30T10:28:12.582Z,4.80
2022-11-30T10:30:50.598Z,4.90
2022-11-30T10:33:21.104Z,4.80
2022-11-30T10:35:52.945Z,4.80
2022-11-30T10:38:24.889Z,4.80
2022-11-30T10:40:57.019Z,4.80
2022-11-30T10:43:30.643Z,4.80
2022-11-30T10:45:58.861Z,4.80
2022-11-30T10:48:35.485Z,4.80
2022-11-30T10:51:04.711Z,4.90
2022-11-30T10:53:33.748Z,4.90
2022-11-30T10:56:05.555Z,4.80
2022-11-30T10:58:39.574Z,4.90
2022-11-30T11:01:10.040Z,4.80
2022-11-30T11:03:38.953Z,4.80
2022-11-30T11:06:32.310Z,4.80
2022-11-30T11:09:00.601Z,4.80
2022-11-30T11:11:32.842Z,4.90
2022-11-30T11:14:21.958Z,4.90
2022-11-30T11:16:53.112Z,4.80
2022-11-30T11:19:31.752Z,4.90
2022-11-30T11:22:00.714Z,4.90
2022-11-30T11:24:29.808Z,4.90
2022-11-30T11:26:58.604Z,4.90
2022-11-30T11:29:34.561Z,4.90
2022-11-30T11:32:21.995Z,4.90
2022-11-30T11:34:51.534Z,4.90
2022-11-30T11:37:26.395Z,4.90
2022-11-30T11:40:04.139Z,4.90
2022-11-30T11:42:36.805Z,5.00
2022-11-30T11:45:16.154Z,5.00
2022-11-30T11:47:46.406Z,5.00
2022-11-30T11:51:04.533Z,5.00
2022-11-30T11:53:26.169Z,5.00
2022-11-30T11:56:00.358Z,5.00
2022-11-30T11:58:38.086Z,5.10
2022-11-30T12:01:38.737Z,5.10
2022-11-30T12:04:11.523Z,5.10
2022-11-30T12:06:43.352Z,5.20
2022-11-30T12:09:16.413Z,5.20
2022-11-30T12:11:46.873Z,5.10
2022-11-30T12:14:17.140Z,5.10
2022-11-30T12:17:02.338Z,5.00
2022-11-30T12:19:39.207Z,5.00
2022-11-30T12:22:19.246Z,4.90
2022-11-30T12:25:22.540Z,4.90
2022-11-30T12:28:01.975Z,4.90
2022-11-30T12:30:38.580Z,4.80
2022-11-30T12:33:20.414Z,4.80
2022-11-30T12:36:00.292Z,4.80
2022-11-30T12:38:39.196Z,4.80
2022-11-30T12:41:27.883Z,4.80
2022-11-30T12:44:06.113Z,4.70
2022-11-30T12:46:42.326Z,4.70
2022-11-30T12:49:27.969Z,4.70
2022-11-30T12:52:04.903Z,4.70
2022-11-30T12:54:39.167Z,4.70
2022-11-30T12:57:14.924Z,4.70
2022-11-30T12:59:53.083Z,4.70
2022-11-30T13:02:51.064Z,4.60
2022-11-30T13:05:48.739Z,4.60
2022-11-30T13:08:24.757Z,4.60
2022-11-30T13:10:57.194Z,4.60
2022-11-30T13:13:30.118Z,4.60
2022-11-30T13:16:00.153Z,4.60
2022-11-30T13:18:28.872Z,4.60
2022-11-30T13:21:06.942Z,4.60
2022-11-30T13:23:38.911Z,4.60
2022-11-30T13:26:14.439Z,4.60
2022-11-30T13:29:02.196Z,4.60
2022-11-30T13:31:36.184Z,4.60
2022-11-30T13:34:04.538Z,4.50
2022-11-30T13:36:38.224Z,4.50
2022-11-30T13:39:11.496Z,4.50
2022-11-30T13:41:40.717Z,4.50
2022-11-30T13:44:24.432Z,4.50
2022-11-30T13:46:54.140Z,4.50
2022-11-30T13:49:24.472Z,4.60
2022-11-30T13:52:20.885Z,4.60
2022-11-30T13:54:45.073Z,4.60
2022-11-30T13:58:22.332Z,4.50
2022-11-30T14:01:21.647Z,4.50
2022-11-30T14:04:43.838Z,4.50
2022-11-30T14:07:38.746Z,4.50
2022-11-30T14:10:28.141Z,4.40
2022-11-30T14:13:01.519Z,4.40
2022-11-30T14:15:55.506Z,4.40
2022-11-30T14:19:04.264Z,4.40
2022-11-30T14:21:36.756Z,4.40
2022-11-30T14:24:14.979Z,4.40
2022-11-30T14:26:47.285Z,4.30
2022-11-30T14:29:19.744Z,4.30
2022-11-30T14:31:56.497Z,4.30
2022-11-30T14:34:28.379Z,4.30
2022-11-30T14:37:00.502Z,4.30
2022-11-30T14:39:35.384Z,4.30
2022-11-30T14:42:06.600Z,4.30
2022-11-30T14:44:40.847Z,4.30
2022-11-30T14:47:17.232Z,4.30
2022-11-30T14:49:48.878Z,4.30
2022-11-30T14:52:25.795Z,4.30
2022-11-30T14:55:05.601Z,4.30
2022-11-30T14:57:39.834Z,4.20
2022-11-30T15:00:16.507Z,4.20
2022-11-30T15:03:18.404Z,4.20
2022-11-30T15:05:46.719Z,4.20
2022-11-30T15:08:17.969Z,4.10
2022-11-30T15:10:47.872Z,4.10
2022-11-30T15:13:19.204Z,4.10
2022-11-30T15:15:55.033Z,4.20
2022-11-30T15:18:24.343Z,4.10
2022-11-30T15:20:57.385Z,4.10
2022-11-30T15:23:25.704Z,4.10
2022-11-30T15:26:00.155Z,4.10
2022-11-30T15:28:32.944Z,4.10
2022-11-30T15:31:05.123Z,4.10
2022-11-30T15:33:38.128Z,4.00
2022-11-30T15:39:03.641Z,4.00
2022-11-30T15:41:34.693Z,4.00
2022-11-30T15:44:03.368Z,4.00
2022-11-30T15:46:34.887Z,4.00
2022-11-30T15:49:17.320Z,4.00
2022-11-30T15:51:47.622Z,3.90
2022-11-30T15:54:15.969Z,3.90
2022-11-30T15:56:57.982Z,3.90
2022-11-30T15:59:28.930Z,3.90
2022-11-30T16:02:08.437Z,3.90
2022-11-30T16:05:08.378Z,3.90
2022-11-30T16:07:49.519Z,3.90
2022-11-30T16:10:43.802Z,3.90
2022-11-30T16:13:16.242Z,3.80
2022-11-30T16:15:47.542Z,3.80
2022-11-30T16:18:19.104Z,3.80
2022-11-30T16:20:49.885Z,3.80
2022-11-30T16:23:19.172Z,3.80
2022-11-30T16:25:49.406Z,3.80
2022-11-30T16:28:20.456Z,3.80
2022-11-30T16:31:38.782Z,3.80
2022-11-30T16:34:08.767Z,3.90
2022-11-30T16:36:39.135Z,3.80
2022-11-30T16:39:11.855Z,3.90
2022-11-30T16:41:40.086Z,3.90
2022-11-30T16:44:14.388Z,3.80
2022-11-30T16:46:42.653Z,3.80
2022-11-30T16:49:10.954Z,3.80
2022-11-30T16:51:41.753Z,3.80
2022-11-30T16:54:13.567Z,3.80
2022-11-30T16:56:41.974Z,3.80
2022-11-30T16:59:16.369Z,3.80
2022-11-30T17:01:48.448Z,3.80
2022-11-30T17:04:19.555Z,3.80
2022-11-30T17:06:50.718Z,3.80
2022-11-30T17:09:22.130Z,3.80
2022-11-30T17:11:52.038Z,3.80
2022-11-30T17:14:22.126Z,3.80
2022-11-30T17:16:50.489Z,3.80
2022-11-30T17:19:18.825Z,3.80
2022-11-30T17:21:48.381Z,3.80
2022-11-30T17:24:17.012Z,3.80
2022-11-30T17:26:45.252Z,3.80
2022-11-30T17:29:13.538Z,3.80
2022-11-30T17:31:43.130Z,3.70
2022-11-30T17:34:11.373Z,3.70
2022-11-30T17:36:39.632Z,3.80
2022-11-30T17:39:09.087Z,3.80
2022-11-30T17:41:37.369Z,3.80
2022-11-30T17:44:05.646Z,3.80
2022-11-30T17:46:33.930Z,3.80
2022-11-30T17:49:03.538Z,3.80
2022-11-30T17:51:32.050Z,3.80
2022-11-30T17:54:00.371Z,3.80
2022-11-30T17:56:28.630Z,3.80
2022-11-30T17:58:56.852Z,3.80
2022-11-30T18:01:42.452Z,3.80
2022-11-30T18:04:12.378Z,3.80
2022-11-30T18:06:40.723Z,3.80
2022-11-30T18:09:09.084Z,3.80
2022-11-30T18:11:37.287Z,3.70
2022-11-30T18:14:05.710Z,3.70
2022-11-30T18:16:36.423Z,3.70
2022-11-30T18:19:11.889Z,3.70
2022-11-30T18:21:44.134Z,3.70
2022-11-30T18:24:13.537Z,3.70
2022-11-30T18:26:42.128Z,3.70
2022-11-30T18:29:12.163Z,3.70
2022-11-30T18:31:40.339Z,3.70
2022-11-30T18:34:09.347Z,3.60
2022-11-30T18:36:37.558Z,3.60
2022-11-30T18:39:07.182Z,3.60
2022-11-30T18:41:35.404Z,3.60
2022-11-30T18:44:03.965Z,3.60
2022-11-30T18:46:32.305Z,3.50
2022-11-30T18:49:01.680Z,3.50
2022-11-30T18:51:31.604Z,3.50
2022-11-30T18:54:01.608Z,3.50
2022-11-30T18:56:33.237Z,3.50
2022-11-30T18:59:06.132Z,3.50
2022-11-30T19:01:34.566Z,3.50
2022-11-30T19:04:05.151Z,3.50
2022-11-30T19:06:33.969Z,3.50
2022-11-30T19:09:04.046Z,3.40
2022-11-30T19:11:34.827Z,3.50
2022-11-30T19:14:03.894Z,3.50
2022-11-30T19:16:34.345Z,3.40
2022-11-30T19:19:04.999Z,3.40
2022-11-30T19:21:33.376Z,3.40
2022-11-30T19:24:02.019Z,3.40
2022-11-30T19:26:30.545Z,3.40
2022-11-30T19:29:00.245Z,3.40
2022-11-30T19:31:28.885Z,3.50
2022-11-30T19:33:57.669Z,3.50
2022-11-30T19:36:27.598Z,3.50
2022-11-30T19:38:56.818Z,3.50
2022-11-30T19:41:25.028Z,3.50
2022-11-30T19:44:02.498Z,3.50
2022-11-30T19:46:34.632Z,3.60
2022-11-30T19:49:03.660Z,3.50
2022-11-30T19:51:32.623Z,3.50
2022-11-30T19:54:00.988Z,3.50
2022-11-30T19:56:31.460Z,3.50
2022-11-30T19:59:05.152Z,3.50
2022-11-30T20:01:36.209Z,3.50
2022-11-30T20:04:05.129Z,3.50
2022-11-30T20:06:35.889Z,3.40
2022-11-30T20:09:05.470Z,3.50
2022-11-30T20:11:33.880Z,3.50
2022-11-30T20:14:02.134Z,3.60
2022-11-30T20:16:30.639Z,3.60
2022-11-30T20:19:02.179Z,3.60
2022-11-30T20:21:32.290Z,3.60
2022-11-30T20:24:01.694Z,3.60
2022-11-30T20:26:32.430Z,3.60
2022-11-30T20:29:02.828Z,3.60
2022-11-30T20:31:32.425Z,3.50
2022-11-30T20:34:02.105Z,3.50
2022-11-30T20:36:30.351Z,3.60
2022-11-30T20:38:59.577Z,3.60
2022-11-30T20:41:28.684Z,3.60
2022-11-30T20:43:57.401Z,3.50
2022-11-30T20:46:28.195Z,3.50
2022-11-30T20:48:57.240Z,3.50
2022-11-30T20:51:31.825Z,3.50
2022-11-30T20:54:28.868Z,3.50
2022-11-30T20:56:58.860Z,3.50
2022-11-30T20:59:27.663Z,3.50
2022-11-30T21:01:57.359Z,3.50
2022-11-30T21:04:27.199Z,3.60
2022-11-30T21:06:56.888Z,3.60
2022-11-30T21:09:25.164Z,3.60
2022-11-30T21:11:53.559Z,3.60
2022-11-30T21:14:22.168Z,3.60
2022-11-30T21:16:50.350Z,3.60
2022-11-30T21:19:18.556Z,3.70
2022-11-30T21:21:46.815Z,3.70
2022-11-30T21:24:16.509Z,3.70
2022-11-30T21:26:44.871Z,3.70
2022-11-30T21:29:15.519Z,3.70
2022-11-30T21:31:44.026Z,3.70
2022-11-30T21:34:12.448Z,3.70
2022-11-30T21:36:40.693Z,3.70
2022-11-30T21:39:09.790Z,3.70
2022-11-30T21:42:01.193Z,3.70
2022-11-30T21:44:29.880Z,3.70
2022-11-30T21:46:58.304Z,3.70
2022-11-30T21:49:28.429Z,3.70
2022-11-30T21:51:56.627Z,3.70
2022-11-30T21:54:24.836Z,3.60
2022-11-30T21:56:53.335Z,3.70
2022-11-30T21:59:22.924Z,3.70
2022-11-30T22:01:51.177Z,3.70
2022-11-30T22:04:19.467Z,3.70
2022-11-30T22:06:48.117Z,3.70
2022-11-30T22:09:17.943Z,3.70
2022-11-30T22:11:46.949Z,3.70
2022-11-30T22:14:17.075Z,3.80
2022-11-30T22:16:46.987Z,3.80
2022-11-30T22:19:15.684Z,3.80
2022-11-30T22:21:49.710Z,3.70
2022-11-30T22:24:18.668Z,3.80
2022-11-30T22:26:49.123Z,3.80
2022-11-30T22:29:42.567Z,3.90
2022-11-30T22:32:12.146Z,3.90
2022-11-30T22:34:40.333Z,3.90
2022-11-30T22:37:08.646Z,3.90
2022-11-30T22:39:36.872Z,3.90
2022-11-30T22:42:05.371Z,3.90
2022-11-30T22:44:33.540Z,3.90
2022-11-30T22:47:02.788Z,3.90
2022-11-30T22:49:32.545Z,3.90
2022-11-30T22:52:00.828Z,3.90
2022-11-30T22:54:29.030Z,3.90
2022-11-30T22:56:57.241Z,3.90
2022-11-30T22:59:25.483Z,3.90
2022-11-30T23:01:57.750Z,3.90
2022-11-30T23:04:26.096Z,3.90
2022-11-30T23:06:55.826Z,3.90
2022-11-30T23:09:25.139Z,3.90
2022-11-30T23:11:53.712Z,3.80
2022-11-30T23:14:21.950Z,3.80
2022-11-30T23:16:50.210Z,3.80
2022-11-30T23:19:18.493Z,3.80
2022-11-30T23:21:46.818Z,3.80
2022-11-30T23:24:20.273Z,3.80
2022-11-30T23:26:49.259Z,3.70
2022-11-30T23:29:18.772Z,3.70
2022-11-30T23:31:48.360Z,3.70
2022-11-30T23:34:18.334Z,3.70
2022-11-30T23:36:47.054Z,3.70
2022-11-30T23:39:18.534Z,3.60
2022-11-30T23:41:47.751Z,3.60
2022-11-30T23:44:16.199Z,3.60
2022-11-30T23:46:44.698Z,3.60
2022-11-30T23:49:14.230Z,3.60
2022-11-30T23:51:42.544Z,3.60
2022-11-30T23:55:00.103Z,3.70
2022-11-30T23:57:29.776Z,3.70
2022-11-30T23:59:58.006Z,3.60
